地図

経路データ

SID SEASON NUMBER BASIN SUBBASIN NAME ISO_TIME NATURE LAT LON WMO_WIND WMO_PRES WMO_AGENCY TRACK_TYPE DIST2LAND LANDFALL IFLAG USA_AGENCY USA_ATCF_ID USA_LAT USA_LON USA_RECORD USA_STATUS USA_WIND USA_PRES USA_SSHS USA_R34_NE USA_R34_SE USA_R34_SW USA_R34_NW USA_R50_NE USA_R50_SE USA_R50_SW USA_R50_NW USA_R64_NE USA_R64_SE USA_R64_SW USA_R64_NW USA_POCI USA_ROCI USA_RMW USA_EYE TOKYO_LAT TOKYO_LON TOKYO_GRADE TOKYO_WIND TOKYO_PRES TOKYO_R50_DIR TOKYO_R50_LONG TOKYO_R50_SHORT TOKYO_R30_DIR TOKYO_R30_LONG TOKYO_R30_SHORT TOKYO_LAND CMA_LAT CMA_LON CMA_CAT CMA_WIND CMA_PRES HKO_LAT HKO_LON HKO_CAT HKO_WIND HKO_PRES NEWDELHI_LAT NEWDELHI_LON NEWDELHI_GRADE NEWDELHI_WIND NEWDELHI_PRES NEWDELHI_CI NEWDELHI_DP NEWDELHI_POCI REUNION_LAT REUNION_LON REUNION_TYPE REUNION_WIND REUNION_PRES REUNION_TNUM REUNION_CI REUNION_RMW REUNION_R34_NE REUNION_R34_SE REUNION_R34_SW REUNION_R34_NW REUNION_R50_NE REUNION_R50_SE REUNION_R50_SW REUNION_R50_NW REUNION_R64_NE REUNION_R64_SE REUNION_R64_SW REUNION_R64_NW BOM_LAT BOM_LON BOM_TYPE BOM_WIND BOM_PRES BOM_TNUM BOM_CI BOM_RMW BOM_R34_NE BOM_R34_SE BOM_R34_SW BOM_R34_NW BOM_R50_NE BOM_R50_SE BOM_R50_SW BOM_R50_NW BOM_R64_NE BOM_R64_SE BOM_R64_SW BOM_R64_NW BOM_ROCI BOM_POCI BOM_EYE BOM_POS_METHOD BOM_PRES_METHOD NADI_LAT NADI_LON NADI_CAT NADI_WIND NADI_PRES WELLINGTON_LAT WELLINGTON_LON WELLINGTON_WIND WELLINGTON_PRES DS824_LAT DS824_LON DS824_STAGE DS824_WIND DS824_PRES TD9636_LAT TD9636_LON TD9636_STAGE TD9636_WIND TD9636_PRES TD9635_LAT TD9635_LON TD9635_WIND TD9635_PRES TD9635_ROCI NEUMANN_LAT NEUMANN_LON NEUMANN_CLASS NEUMANN_WIND NEUMANN_PRES MLC_LAT MLC_LON MLC_CLASS MLC_WIND MLC_PRES USA_GUST BOM_GUST BOM_GUST_PER REUNION_GUST REUNION_GUST_PER USA_SEAHGT USA_SEARAD_NE USA_SEARAD_SE USA_SEARAD_SW USA_SEARAD_NW STORM_SPEED STORM_DIR
1905295N17067 1905 49 NI AS NOT_NAMED 1905-10-22 00:00:00 TS 17.4000 67.1000 main 526 526 _________O____ -1 17.4000 67.1000 TC 34 1 276
1905295N17067 1905 49 NI AS NOT_NAMED 1905-10-22 03:00:00 TS 17.4067 67.0250 main 533 533 _________PO___ -1 17.4100 66.9875 TC 36 17.4000 67.1000 2 1 266
1905295N17067 1905 49 NI AS NOT_NAMED 1905-10-22 06:00:00 TS 17.3901 66.9456 main 539 539 _________OP___ -1 17.4000 66.9000 TC 39 17.3751 67.0140 2 1 248
1905295N17067 1905 49 NI AS NOT_NAMED 1905-10-22 09:00:00 TS 17.3544 66.8853 main 539 539 _________PP___ -1 17.3575 66.8500 TC 42 17.3502 66.9324 2 1 236
1905295N17067 1905 49 NI AS NOT_NAMED 1905-10-22 12:00:00 TS 17.3126 66.8298 main 555 555 _________OP___ -1 17.3000 66.8000 TC 45 17.3252 66.8596 2 1 238
1905295N17067 1905 49 NI AS NOT_NAMED 1905-10-22 15:00:00 TS 17.2750 66.7538 main 555 555 _________PO___ -1 17.2500 66.7075 TC 45 17.3000 66.8000 3 2 243
1905295N17067 1905 49 NI AS NOT_NAMED 1905-10-22 18:00:00 TS 17.2366 66.6760 main 570 570 _________OP___ -1 17.2000 66.6000 TC 45 17.2732 66.7521 3 2 241
1905295N17067 1905 49 NI AS NOT_NAMED 1905-10-22 21:00:00 TS 17.2009 66.6140 main 577 577 _________PP___ -1 17.1649 66.5376 TC 45 17.2370 66.6904 3 2 242
1905295N17067 1905 49 NI AS NOT_NAMED 1905-10-23 00:00:00 TS 17.1412 66.4917 main 592 592 _________OP___ -1 17.1000 66.4000 TC 45 17.1824 66.5835 3 4 244
1905295N17067 1905 49 NI AS NOT_NAMED 1905-10-23 03:00:00 TS 17.0325 66.2475 main 622 622 _________PO___ -1 16.9650 66.0949 TC 45 17.1000 66.4000 3 6 246
1905295N17067 1905 49 NI AS NOT_NAMED 1905-10-23 06:00:00 TS 16.8876 65.8917 main 651 651 _________OP___ -1 16.8000 65.7000 TC 45 16.9752 66.0833 3 8 248
1905295N17067 1905 49 NI AS NOT_NAMED 1905-10-23 09:00:00 TS 16.7329 65.4897 main 697 697 _________PP___ -1 16.6426 65.2850 TC 45 16.8233 65.6944 3 8 248
1905295N17067 1905 49 NI AS NOT_NAMED 1905-10-23 12:00:00 TS 16.5798 65.0917 main 735 735 _________OP___ -1 16.5000 64.9000 TC 45 16.6596 65.2833 3 8 248
1905295N17067 1905 49 NI AS NOT_NAMED 1905-10-23 15:00:00 TS 16.4499 64.7638 main 774 771 _________PO___ -1 16.3999 64.6276 TC 45 16.5000 64.9000 3 6 246
1905295N17067 1905 49 NI AS NOT_NAMED 1905-10-23 18:00:00 TS 16.3337 64.5133 main 771 756 _________OP___ -1 16.3000 64.4000 TC 45 16.3674 64.6266 3 5 241
1905295N17067 1905 49 NI AS NOT_NAMED 1905-10-23 21:00:00 TS 16.1959 64.2752 main 756 733 _________PP___ -1 16.1499 64.1650 TC 45 16.2419 64.3854 3 5 240
1905295N17067 1905 49 NI AS NOT_NAMED 1905-10-24 00:00:00 TS 16.0603 64.0258 main 733 710 _________OP___ -1 16.0000 63.9000 TC 45 16.1205 64.1516 3 6 245
1905295N17067 1905 49 NI AS NOT_NAMED 1905-10-24 03:00:00 TS 15.9500 63.7288 main 710 687 _________PO___ -1 15.9000 63.5576 TC 45 16.0000 63.9000 3 6 250
1905295N17067 1905 49 NI AS NOT_NAMED 1905-10-24 06:00:00 TS 15.8396 63.3922 main 693 672 _________OP___ -1 15.8000 63.2000 TC 45 15.8792 63.5844 3 7 249
1905295N17067 1905 49 NI AS NOT_NAMED 1905-10-24 09:00:00 TS 15.7076 63.0675 main 672 653 _________PP___ -1 15.6575 62.8850 TC 45 15.7577 63.2501 3 7 246
1905295N17067 1905 49 NI AS NOT_NAMED 1905-10-24 12:00:00 TS 15.5662 62.7578 main 653 634 _________OP___ -1 15.5000 62.6000 TC 45 15.6323 62.9157 3 6 244
1905295N17067 1905 49 NI AS NOT_NAMED 1905-10-24 15:00:00 TS 15.4250 62.4713 main 641 624 _________PO___ -1 15.3499 62.3426 TC 45 15.5000 62.6000 3 6 242
1905295N17067 1905 49 NI AS NOT_NAMED 1905-10-24 18:00:00 TS 15.2846 62.2164 main 624 616 _________OP___ -1 15.2000 62.1000 TC 45 15.3691 62.3328 3 6 240
1905295N17067 1905 49 NI AS NOT_NAMED 1905-10-24 21:00:00 TS 15.1473 61.9677 main 624 609 _________PP___ -1 15.0650 61.8501 TC 45 15.2297 62.0854 3 6 238
1905295N17067 1905 49 NI AS NOT_NAMED 1905-10-25 00:00:00 TS 14.9877 61.7226 main 610 610 _________OP___ -1 14.9000 61.6000 TC 45 15.0754 61.8453 3 6 232
1905295N17067 1905 49 NI AS NOT_NAMED 1905-10-25 03:00:00 TS 14.7787 61.4787 main 613 608 _________PO___ -1 14.6574 61.3575 TC 45 14.9000 61.6000 3 7 228
1905295N17067 1905 49 NI AS NOT_NAMED 1905-10-25 06:00:00 TS 14.5483 61.2161 main 620 614 _________OP___ -1 14.4000 61.1000 TC 45 14.6965 61.3322 3 7 230
1905295N17067 1905 49 NI AS NOT_NAMED 1905-10-25 09:00:00 TS 14.3399 60.9363 main 621 615 _________PP___ -1 14.2075 60.8151 TC 45 14.4724 61.0575 3 7 232
1905295N17067 1905 49 NI AS NOT_NAMED 1905-10-25 12:00:00 TS 14.1186 60.6395 main 618 611 _________OP___ -1 14.0000 60.5000 TC 45 14.2371 60.7791 3 8 231
1905295N17067 1905 49 NI AS NOT_NAMED 1905-10-25 15:00:00 TS 13.8463 60.3174 main 620 613 _________PO___ -1 13.6926 60.1348 TC 41 14.0000 60.5000 3 8 229
1905295N17067 1905 49 NI AS NOT_NAMED 1905-10-25 18:00:00 TS 13.6106 60.0415 main 606 581 _________OP___ -1 13.4000 59.8000 TC 37 13.7686 60.2227 3 7 229
1905295N17067 1905 49 NI AS NOT_NAMED 1905-10-25 21:00:00 TS 13.4116 59.7954 main 581 558 _________PP___ -1 13.2150 59.5676 TC 33 13.5427 59.9472 3 6 231
1905295N17067 1905 49 NI AS NOT_NAMED 1905-10-26 00:00:00 TS 13.2470 59.5821 main 557 534 _________OP___ -1 13.1000 59.4000 TC 30 13.3205 59.6731 3 5 231
1905295N17067 1905 49 NI AS NOT_NAMED 1905-10-26 03:00:00 NR 13.1000 59.4000 main 534 __________O___ -1 TC 13.1000 59.4000 1 5 230

IBTrACS Databaseについて

本データベースは、米国NOAAが公開する1842年以降の世界の熱帯低気圧のベストトラックデータアーカイブInternational Best Track Archive for Climate Stewardship (IBTrACS)を、ウェブで閲覧しやすい形式に変換したものです。

最終更新日:2021-12-01